createdAt,value
2018-02-10T06:29:44.059Z,2.70
2018-02-10T06:32:15.947Z,2.70
2018-02-10T06:34:48.582Z,2.70
2018-02-10T06:37:20.495Z,2.70
2018-02-10T06:39:52.378Z,2.70
2018-02-10T06:42:24.266Z,2.70
2018-02-10T06:44:56.231Z,2.70
2018-02-10T06:47:28.107Z,2.70
2018-02-10T06:50:00.056Z,2.70
2018-02-10T06:52:31.982Z,2.70
2018-02-10T06:55:03.867Z,2.70
2018-02-10T06:57:35.787Z,2.70
2018-02-10T07:00:07.689Z,2.60
2018-02-10T07:02:39.677Z,2.60
2018-02-10T07:05:11.546Z,2.60
2018-02-10T07:07:43.482Z,2.60
2018-02-10T07:10:15.350Z,2.60
2018-02-10T07:12:47.293Z,2.60
2018-02-10T07:15:19.152Z,2.60
2018-02-10T07:17:51.038Z,2.60
2018-02-10T07:20:22.925Z,2.60
2018-02-10T07:22:54.810Z,2.70
2018-02-10T07:25:26.950Z,2.70
2018-02-10T07:27:59.119Z,2.70
2018-02-10T07:30:31.288Z,2.70
2018-02-10T07:33:03.185Z,2.70
2018-02-10T07:35:35.071Z,2.70
2018-02-10T07:38:06.983Z,2.70
2018-02-10T07:40:38.847Z,2.80
2018-02-10T07:43:10.761Z,2.80
2018-02-10T07:45:42.955Z,2.80
2018-02-10T07:48:15.114Z,2.80
2018-02-10T07:50:46.993Z,2.90
2018-02-10T07:53:19.143Z,2.90
2018-02-10T07:55:51.317Z,2.90
2018-02-10T07:58:23.209Z,2.90
2018-02-10T08:00:55.442Z,3.00
2018-02-10T08:03:27.324Z,3.00
2018-02-10T08:05:59.263Z,3.00
2018-02-10T08:08:31.158Z,3.10
2018-02-10T08:11:03.095Z,3.10
2018-02-10T08:13:34.970Z,3.20
2018-02-10T08:16:07.746Z,3.20
2018-02-10T08:18:39.733Z,3.20
2018-02-10T08:21:11.710Z,3.20
2018-02-10T08:23:43.651Z,3.20
2018-02-10T08:26:15.553Z,3.20
2018-02-10T08:28:48.202Z,3.20
2018-02-10T08:31:20.075Z,3.20
2018-02-10T08:33:51.966Z,3.20
2018-02-10T08:36:24.064Z,3.30
2018-02-10T08:38:56.122Z,3.30
2018-02-10T08:41:28.009Z,3.30
2018-02-10T08:43:59.902Z,3.30
2018-02-10T08:46:32.566Z,3.40
2018-02-10T08:49:04.499Z,3.30
2018-02-10T08:51:36.599Z,3.40
2018-02-10T08:54:09.700Z,3.40
2018-02-10T08:56:42.595Z,3.50
2018-02-10T08:59:14.483Z,3.40
2018-02-10T09:01:46.371Z,3.50
2018-02-10T09:04:18.333Z,3.50
2018-02-10T09:06:50.459Z,3.60
2018-02-10T09:09:22.462Z,3.60
2018-02-10T09:11:54.559Z,3.60
2018-02-10T09:14:27.231Z,3.70
2018-02-10T09:16:59.882Z,3.70
2018-02-10T09:19:32.097Z,3.70
2018-02-10T09:22:03.983Z,3.70
2018-02-10T09:24:35.874Z,3.70
2018-02-10T09:27:07.754Z,3.70
2018-02-10T09:29:40.410Z,3.70
2018-02-10T09:32:12.295Z,3.70
2018-02-10T09:34:44.953Z,3.70
2018-02-10T09:37:16.956Z,3.70
2018-02-10T09:39:48.994Z,3.70
2018-02-10T09:42:21.770Z,3.70
2018-02-10T09:44:54.561Z,3.80
2018-02-10T09:47:26.560Z,3.70
2018-02-10T09:49:58.456Z,3.80
2018-02-10T09:52:30.326Z,3.80
2018-02-10T09:55:02.224Z,3.80
2018-02-10T09:57:34.096Z,3.80
2018-02-10T10:00:05.982Z,3.80
2018-02-10T10:02:37.873Z,3.80
2018-02-10T10:05:09.767Z,3.90
2018-02-10T10:07:41.647Z,3.90
2018-02-10T10:10:13.573Z,3.90
2018-02-10T10:12:46.269Z,3.90
2018-02-10T10:15:18.164Z,4.00
2018-02-10T10:17:50.059Z,3.90
2018-02-10T10:20:21.970Z,3.90
2018-02-10T10:22:53.870Z,3.90
2018-02-10T10:25:25.764Z,3.90
2018-02-10T10:27:57.637Z,3.90
2018-02-10T10:30:29.547Z,4.00
2018-02-10T10:33:01.414Z,4.00
2018-02-10T10:35:33.300Z,4.00
2018-02-10T10:38:05.943Z,4.10
2018-02-10T10:40:37.835Z,4.10
2018-02-10T10:43:10.726Z,4.10
2018-02-10T10:45:42.614Z,4.10
2018-02-10T10:48:14.751Z,4.10
2018-02-10T10:50:47.569Z,4.10
2018-02-10T10:53:19.451Z,4.20
2018-02-10T10:55:51.335Z,4.10
2018-02-10T10:58:24.238Z,4.10
2018-02-10T11:00:56.126Z,4.10
2018-02-10T11:03:28.002Z,4.20
2018-02-10T11:05:59.887Z,4.20
2018-02-10T11:08:31.774Z,4.20
2018-02-10T11:11:03.951Z,4.20
2018-02-10T11:13:35.838Z,4.20
2018-02-10T11:16:07.727Z,4.20
2018-02-10T11:18:39.610Z,4.30
2018-02-10T11:21:12.319Z,4.30
2018-02-10T11:23:44.191Z,4.30
2018-02-10T11:26:16.465Z,4.40
2018-02-10T11:28:48.321Z,4.40
2018-02-10T11:31:20.220Z,4.40
2018-02-10T11:33:52.441Z,4.40
2018-02-10T11:36:24.518Z,4.40
2018-02-10T11:38:56.410Z,4.40
2018-02-10T11:41:28.290Z,4.40
2018-02-10T11:44:00.947Z,4.40
2018-02-10T11:46:32.842Z,4.40
2018-02-10T11:49:05.500Z,4.50
2018-02-10T11:51:37.453Z,4.40
2018-02-10T11:54:09.282Z,4.50
2018-02-10T11:56:41.411Z,4.50
2018-02-10T11:59:13.288Z,4.50
2018-02-10T12:01:45.170Z,4.50
2018-02-10T12:04:17.035Z,4.50
2018-02-10T12:06:48.947Z,4.50
2018-02-10T12:09:20.837Z,4.40
2018-02-10T12:11:52.708Z,4.40
2018-02-10T12:14:24.583Z,4.40
2018-02-10T12:16:56.471Z,4.40
2018-02-10T12:19:29.102Z,4.40
2018-02-10T12:22:00.995Z,4.40
2018-02-10T12:24:33.204Z,4.40
2018-02-10T12:27:05.097Z,4.30
2018-02-10T12:29:37.007Z,4.30
2018-02-10T12:32:09.780Z,4.30
2018-02-10T12:34:42.427Z,4.30
2018-02-10T12:37:14.310Z,4.30
2018-02-10T12:39:46.948Z,4.30
2018-02-10T12:42:19.063Z,4.30
2018-02-10T12:44:51.698Z,4.30
2018-02-10T12:47:23.589Z,4.30
2018-02-10T12:49:55.478Z,4.30
2018-02-10T12:52:27.362Z,4.30
2018-02-10T12:54:59.234Z,4.30
2018-02-10T12:57:31.140Z,4.30
2018-02-10T13:00:03.325Z,4.40
2018-02-10T13:02:35.222Z,4.40
2018-02-10T13:05:07.080Z,4.40
2018-02-10T13:07:38.958Z,4.40
2018-02-10T13:10:10.851Z,4.40
2018-02-10T13:12:43.494Z,4.50
2018-02-10T13:15:15.523Z,4.50
2018-02-10T13:17:47.430Z,4.50
2018-02-10T13:20:19.536Z,4.50
2018-02-10T13:22:51.423Z,4.50
2018-02-10T13:25:23.559Z,4.50
2018-02-10T13:27:55.474Z,4.50
2018-02-10T13:30:27.342Z,4.60
2018-02-10T13:32:59.550Z,4.70
2018-02-10T13:35:31.431Z,4.70
2018-02-10T13:38:03.331Z,4.80
2018-02-10T13:40:35.203Z,4.90
2018-02-10T13:43:07.850Z,5.10
2018-02-10T13:45:39.727Z,5.10
2018-02-10T13:48:23.363Z,5.10
2018-02-10T13:50:55.238Z,5.10
2018-02-10T13:53:27.894Z,5.10
2018-02-10T13:55:59.763Z,5.10
2018-02-10T13:58:31.662Z,5.10
2018-02-10T14:01:03.542Z,5.10
2018-02-10T14:03:35.437Z,5.00
2018-02-10T14:06:07.309Z,5.00
2018-02-10T14:08:39.191Z,4.90
2018-02-10T14:11:11.075Z,4.90
2018-02-10T14:13:42.974Z,4.80
2018-02-10T14:16:14.859Z,4.80
2018-02-10T14:18:47.867Z,4.60
2018-02-10T14:21:19.757Z,4.60
2018-02-10T14:23:51.647Z,4.60
2018-02-10T14:26:23.519Z,4.50
2018-02-10T14:28:55.409Z,4.50
2018-02-10T14:31:27.283Z,4.50
2018-02-10T14:33:59.199Z,4.50
2018-02-10T14:36:31.135Z,4.40
2018-02-10T14:39:03.026Z,4.40
2018-02-10T14:41:35.666Z,4.30
2018-02-10T14:44:07.570Z,4.30
2018-02-10T14:46:39.450Z,4.30
2018-02-10T14:49:11.371Z,4.30
2018-02-10T14:51:43.239Z,4.30
2018-02-10T14:54:15.135Z,4.30
2018-02-10T14:56:47.015Z,4.40
2018-02-10T14:59:18.898Z,4.40
2018-02-10T15:01:50.778Z,4.40
2018-02-10T15:04:22.674Z,4.50
2018-02-10T15:06:54.548Z,4.50
2018-02-10T15:09:26.446Z,4.50
2018-02-10T15:11:58.324Z,4.50
2018-02-10T15:14:30.204Z,4.50
2018-02-10T15:17:02.383Z,4.50
2018-02-10T15:19:34.267Z,4.50
2018-02-10T15:22:06.145Z,4.50
2018-02-10T15:24:38.056Z,4.50
2018-02-10T15:27:10.702Z,4.50
2018-02-10T15:29:54.517Z,4.50
2018-02-10T15:32:38.441Z,4.60
2018-02-10T15:35:10.318Z,4.60
2018-02-10T15:37:42.201Z,4.60
2018-02-10T15:40:14.091Z,4.60
2018-02-10T15:42:46.776Z,4.60
2018-02-10T15:45:18.649Z,4.60
2018-02-10T15:47:50.539Z,4.60
2018-02-10T15:50:22.419Z,4.60
2018-02-10T15:52:54.310Z,4.60
2018-02-10T15:55:26.946Z,4.60
2018-02-10T15:57:59.064Z,4.60
2018-02-10T16:00:30.952Z,4.60
2018-02-10T16:03:02.873Z,4.60
2018-02-10T16:05:35.506Z,4.70
2018-02-10T16:08:07.417Z,4.70
2018-02-10T16:10:40.054Z,4.60
2018-02-10T16:13:11.990Z,4.60
2018-02-10T16:15:43.869Z,4.60
2018-02-10T16:18:15.883Z,4.50
2018-02-10T16:20:48.551Z,4.30
2018-02-10T16:23:20.443Z,4.30
2018-02-10T16:25:52.400Z,4.20
2018-02-10T16:28:24.298Z,4.10
2018-02-10T16:30:56.175Z,4.10
2018-02-10T16:33:28.786Z,4.00
2018-02-10T16:36:00.793Z,3.90
2018-02-10T16:38:32.722Z,3.80
2018-02-10T16:41:04.596Z,3.70
2018-02-10T16:43:36.482Z,3.70
2018-02-10T16:46:08.406Z,3.60
2018-02-10T16:48:40.322Z,3.50
2018-02-10T16:51:12.191Z,3.50
2018-02-10T16:53:45.098Z,3.30
2018-02-10T16:56:16.966Z,3.30
2018-02-10T16:58:48.860Z,3.30
2018-02-10T17:01:20.739Z,3.20
2018-02-10T17:03:52.618Z,3.10
2018-02-10T17:06:25.259Z,3.00
2018-02-10T17:08:57.190Z,3.00
2018-02-10T17:11:29.067Z,3.00
2018-02-10T17:14:00.959Z,2.90
2018-02-10T17:16:32.826Z,2.90
2018-02-10T17:19:04.752Z,2.90
2018-02-10T17:21:36.882Z,2.90
2018-02-10T17:24:08.770Z,2.90
2018-02-10T17:26:40.639Z,2.80
2018-02-10T17:29:12.578Z,2.80
2018-02-10T17:31:44.451Z,2.80
2018-02-10T17:34:16.340Z,2.80
2018-02-10T17:36:48.234Z,2.80
2018-02-10T17:39:20.154Z,2.70
2018-02-10T17:41:52.034Z,2.70
2018-02-10T17:44:23.928Z,2.70
2018-02-10T17:46:55.835Z,2.70
2018-02-10T17:49:27.730Z,2.70
2018-02-10T17:52:00.370Z,2.70
2018-02-10T17:54:33.032Z,2.60
2018-02-10T17:57:04.898Z,2.70
2018-02-10T17:59:36.835Z,2.70
2018-02-10T18:02:08.729Z,2.70
2018-02-10T18:04:40.716Z,2.70
2018-02-10T18:07:12.643Z,2.70
2018-02-10T18:09:44.530Z,2.70
2018-02-10T18:12:16.399Z,2.70
2018-02-10T18:14:48.299Z,2.70
2018-02-10T18:17:20.190Z,2.70
2018-02-10T18:19:52.091Z,2.70
2018-02-10T18:22:24.730Z,2.70
2018-02-10T18:24:56.690Z,2.70
2018-02-10T18:27:28.571Z,2.70
2018-02-10T18:30:00.466Z,2.70
2018-02-10T18:32:33.103Z,2.70
2018-02-10T18:35:05.046Z,2.70
2018-02-10T18:37:36.911Z,2.70
2018-02-10T18:40:08.820Z,2.60
2018-02-10T18:42:41.500Z,2.60
2018-02-10T18:45:14.155Z,2.60
2018-02-10T18:47:46.034Z,2.60
2018-02-10T18:50:18.734Z,2.60
2018-02-10T18:52:50.595Z,2.60
2018-02-10T18:55:22.520Z,2.60
2018-02-10T18:57:55.435Z,2.60
2018-02-10T19:00:27.318Z,2.60
2018-02-10T19:02:59.199Z,2.60
2018-02-10T19:05:31.313Z,2.60
2018-02-10T19:08:03.179Z,2.60
2018-02-10T19:10:35.078Z,2.50
2018-02-10T19:13:06.948Z,2.50
2018-02-10T19:15:38.831Z,2.50
2018-02-10T19:18:11.462Z,2.50
2018-02-10T19:20:43.374Z,2.50
2018-02-10T19:23:16.053Z,2.50
2018-02-10T19:25:47.911Z,2.50
2018-02-10T19:28:20.836Z,2.50
2018-02-10T19:30:52.739Z,2.50
2018-02-10T19:33:24.613Z,2.60
2018-02-10T19:35:56.519Z,2.50
2018-02-10T19:38:28.387Z,2.60
2018-02-10T19:41:00.294Z,2.60
2018-02-10T19:43:32.154Z,2.60
2018-02-10T19:46:04.820Z,2.60
2018-02-10T19:48:36.692Z,2.60
2018-02-10T19:51:09.397Z,2.60
2018-02-10T19:53:41.269Z,2.60
2018-02-10T19:56:13.150Z,2.60
2018-02-10T19:58:45.278Z,2.60
2018-02-10T20:01:17.979Z,2.60
2018-02-10T20:03:49.855Z,2.60
2018-02-10T20:06:21.725Z,2.60
2018-02-10T20:08:53.603Z,2.60
2018-02-10T20:11:25.487Z,2.60
2018-02-10T20:13:58.127Z,2.70
2018-02-10T20:16:30.019Z,2.60
2018-02-10T20:19:01.882Z,2.60
2018-02-10T20:21:34.554Z,2.60
2018-02-10T20:24:07.455Z,2.60
2018-02-10T20:26:39.633Z,2.60
2018-02-10T20:29:11.504Z,2.60
2018-02-10T20:31:43.439Z,2.60
2018-02-10T20:34:16.100Z,2.60
2018-02-10T20:36:47.998Z,2.60
2018-02-10T20:39:19.879Z,2.60
2018-02-10T20:41:51.782Z,2.70
2018-02-10T20:44:23.643Z,2.70
2018-02-10T20:46:56.305Z,2.70
